Terminal Aerodrome Forecast
Issued by NWS

Home | Current Version | Previous Version | Text Only | Print | Product List | Glossary On
Versions: 1 2 3 4 5 6 7 8 9 10 11 12 13 14
825
FTUS46 KSEW 251720
TAFOLM
TAF
KOLM 251720Z 2518/2618 03008KT P6SM FEW250
     FM260500 00000KT P6SM FEW250=

USA.gov is the U.S. government's official web portal to all federal, state and local government web resources and services.